Time;durP1;ratioP1;P1;durP2;ratioP2;P2;SDS_P1;SDS_P2;PMS_P1;PMS_P2;Temp;Humidity;BMP_temperature;BMP_pressure;BME280_temperature;BME280_humidity;BME280_pressure;Samples;Min_cycle;Max_cycle;Signal;HPM_P1;HPM_P2
2021/03/15 00:00:14;;;;;;;12.80;2.00;;;;;;;23.83;37.47;98678.16;4468281;32;34362;-51
2021/03/15 00:02:42;;;;;;;8.80;2.03;;;;;;;23.82;37.45;98681.13;4469007;32;33791;-56
2021/03/15 00:05:10;;;;;;;8.07;2.30;;;;;;;23.81;37.46;98676.75;4469018;32;33874;-52
2021/03/15 00:07:38;;;;;;;9.73;2.17;;;;;;;23.81;37.47;98676.75;4469148;32;33972;-54
2021/03/15 00:10:07;;;;;;;9.23;2.40;;;;;;;23.80;37.42;98686.00;4469304;32;33698;-67
2021/03/15 00:12:34;;;;;;;8.15;2.20;;;;;;;23.79;37.31;98676.19;4475493;32;33063;-64
2021/03/15 00:15:01;;;;;;;13.38;2.58;;;;;;;23.78;37.43;98680.81;4483678;32;33609;-66
2021/03/15 00:17:28;;;;;;;10.13;2.25;;;;;;;23.78;37.47;98682.69;4475598;32;34624;-64
2021/03/15 00:19:55;;;;;;;8.40;2.10;;;;;;;23.77;37.45;98679.16;4468970;32;34250;-68
2021/03/15 00:22:23;;;;;;;7.50;1.87;;;;;;;23.77;37.55;98683.78;4468977;32;32695;-62
2021/03/15 00:24:50;;;;;;;9.88;2.10;;;;;;;23.79;37.66;98687.09;4468879;32;34544;-68
2021/03/15 00:27:17;;;;;;;14.82;2.60;;;;;;;23.77;37.72;98691.97;4480745;32;33723;-57
2021/03/15 00:29:44;;;;;;;13.00;2.20;;;;;;;23.75;37.62;98686.78;4482696;32;33916;-48
2021/03/15 00:32:11;;;;;;;10.45;2.20;;;;;;;23.74;37.64;98679.69;4474708;32;33461;-62
2021/03/15 00:34:39;;;;;;;12.07;2.28;;;;;;;23.73;37.75;98686.19;4484570;32;33779;-65
2021/03/15 00:37:06;;;;;;;9.02;2.08;;;;;;;23.73;37.71;98691.63;4484309;32;33924;-58
2021/03/15 00:39:34;;;;;;;10.35;1.90;;;;;;;23.71;37.92;98682.91;4484531;32;34779;-54
2021/03/15 00:42:01;;;;;;;14.30;2.08;;;;;;;23.70;37.94;98688.63;4484545;32;34393;-56
2021/03/15 00:44:28;;;;;;;10.70;2.17;;;;;;;23.69;37.92;98676.91;4484353;32;33325;-56
2021/03/15 00:46:55;;;;;;;12.75;1.92;;;;;;;23.69;37.95;98682.34;4484456;32;34672;-65
2021/03/15 00:49:22;;;;;;;7.57;1.77;;;;;;;23.67;37.95;98677.16;4484412;32;33697;-47
2021/03/15 00:51:49;;;;;;;8.15;1.80;;;;;;;23.67;37.97;98679.88;4484326;32;33298;-51
2021/03/15 00:54:17;;;;;;;8.88;1.90;;;;;;;23.66;37.99;98669.25;4484536;32;33761;-57
2021/03/15 00:56:45;;;;;;;8.57;1.98;;;;;;;23.65;38.03;98667.59;4484559;32;33895;-54
2021/03/15 00:59:12;;;;;;;10.25;1.85;;;;;;;23.64;38.04;98666.78;4484105;32;34621;-60
2021/03/15 01:01:40;;;;;;;10.95;2.35;;;;;;;23.62;38.03;98660.72;4484355;32;33292;-48
2021/03/15 01:04:10;;;;;;;17.23;2.20;;;;;;;23.62;37.93;98671.62;4484376;32;33833;-64
2021/03/15 01:06:45;;;;;;;9.98;2.05;;;;;;;23.63;38.21;98669.72;4484356;32;34656;-48
2021/03/15 01:09:12;;;;;;;13.50;2.25;;;;;;;23.61;38.16;98661.81;4484389;32;33742;-50
2021/03/15 01:11:40;;;;;;;11.77;2.30;;;;;;;23.61;38.19;98667.25;4483841;32;33270;-55
2021/03/15 01:14:09;;;;;;;6.32;1.90;;;;;;;23.60;38.18;98667.53;4483885;32;33731;-55
2021/03/15 01:16:37;;;;;;;10.77;2.22;;;;;;;23.59;38.09;98669.38;4484598;32;34824;-59
2021/03/15 01:19:04;;;;;;;7.40;1.83;;;;;;;23.59;38.16;98668.56;4484466;32;33756;-48
2021/03/15 01:21:32;;;;;;;8.30;1.87;;;;;;;23.57;38.23;98671.56;4484236;32;34216;-52
2021/03/15 01:23:59;;;;;;;6.57;2.33;;;;;;;23.58;38.38;98675.09;4484052;32;33699;-48
2021/03/15 01:26:26;;;;;;;7.87;1.98;;;;;;;23.56;38.38;98672.66;4484147;32;33887;-55
2021/03/15 01:28:53;;;;;;;11.93;2.25;;;;;;;23.56;38.39;98680.00;4484174;32;33718;-56
2021/03/15 01:31:20;;;;;;;9.82;2.22;;;;;;;23.56;38.46;98688.97;4482938;32;33303;-55
2021/03/15 01:33:47;;;;;;;12.02;2.22;;;;;;;23.54;38.41;98682.94;4482817;32;34419;-52
2021/03/15 01:36:15;;;;;;;9.20;2.03;;;;;;;23.55;38.43;98681.03;4484072;32;33737;-59
2021/03/15 01:38:42;;;;;;;11.32;2.25;;;;;;;23.55;38.38;98686.50;4484166;32;33757;-54
2021/03/15 01:41:09;;;;;;;8.73;1.70;;;;;;;23.54;38.41;98676.69;4484115;32;34378;-57
2021/03/15 01:43:37;;;;;;;10.68;2.15;;;;;;;23.53;38.42;98678.59;4483992;32;33623;-66
2021/03/15 01:46:04;;;;;;;11.05;2.37;;;;;;;23.52;38.41;98670.69;4484037;32;33981;-53
2021/03/15 01:48:31;;;;;;;10.80;1.75;;;;;;;23.52;38.40;98679.66;4483992;32;33773;-58
2021/03/15 01:50:58;;;;;;;7.20;1.73;;;;;;;23.51;38.34;98679.94;4483805;32;34383;-50
2021/03/15 01:53:25;;;;;;;8.20;1.90;;;;;;;23.50;38.36;98675.53;4484229;32;33745;-54
2021/03/15 01:55:52;;;;;;;10.30;2.20;;;;;;;23.49;38.38;98680.16;4469329;32;33910;-56
2021/03/15 01:58:20;;;;;;;8.48;1.67;;;;;;;23.48;38.39;98670.34;4481122;32;33658;-49
2021/03/15 02:00:47;;;;;;;9.25;1.98;;;;;;;23.47;38.29;98679.59;4480705;32;33330;-46
2021/03/15 02:03:16;;;;;;;9.57;1.75;;;;;;;23.47;38.45;98671.44;4478721;32;33725;-65
2021/03/15 02:05:43;;;;;;;9.38;2.28;;;;;;;23.46;38.28;98671.72;4472023;32;34703;-62
2021/03/15 02:08:10;;;;;;;9.57;3.05;;;;;;;23.46;38.38;98671.72;4469531;32;34591;-59
2021/03/15 02:10:37;;;;;;;14.02;2.10;;;;;;;23.45;38.41;98673.56;4483905;32;34795;-56
2021/03/15 02:13:27;;;;;;;13.77;2.20;;;;;;;23.46;38.33;98682.59;4483769;32;34581;-69
2021/03/15 02:15:56;;;;;;;5.40;1.50;;;;;;;23.45;38.50;98678.19;4483795;32;33447;-68
2021/03/15 02:18:33;;;;;;;;;;;;;;;23.42;38.53;98685.81;4484106;32;34147;-64
2021/03/15 02:21:28;;;;;;;9.70;1.92;;;;;;;23.52;38.32;98685.13;4478143;32;32836;-68
2021/03/15 02:24:30;;;;;;;5.37;1.62;;;;;;;23.46;38.42;98690.75;4467616;32;33851;-67
2021/03/15 02:27:16;;;;;;;6.32;1.70;;;;;;;23.42;38.53;98690.44;4455452;32;33911;-68
2021/03/15 02:29:59;;;;;;;13.82;2.03;;;;;;;23.40;38.34;98693.41;4468115;32;33979;-67
2021/03/15 02:33:05;;;;;;;9.55;1.70;;;;;;;23.40;38.52;98700.75;4463689;32;89459;-53
2021/03/15 02:35:32;;;;;;;11.35;1.98;;;;;;;23.40;38.49;98706.19;4467911;32;33898;-54
2021/03/15 02:38:05;;;;;;;8.15;2.10;;;;;;;23.37;38.65;98698.53;4466751;32;33822;-67
2021/03/15 02:40:41;;;;;;;5.00;1.62;;;;;;;23.37;38.61;98701.28;4466557;32;34760;-67
2021/03/15 02:43:09;;;;;;;6.78;1.65;;;;;;;23.34;38.58;98702.56;4468026;32;33325;-56
2021/03/15 02:45:37;;;;;;;6.90;1.90;;;;;;;23.36;38.51;98699.59;4466379;32;33547;-68
2021/03/15 02:48:10;;;;;;;9.38;1.70;;;;;;;23.36;38.43;98711.34;4467658;32;33651;-64
2021/03/15 02:50:39;;;;;;;5.10;1.70;;;;;;;23.36;38.49;98713.22;4466535;32;34384;-68
2021/03/15 02:53:08;;;;;;;6.93;1.80;;;;;;;23.36;38.50;98716.78;4453841;32;34661;-68
2021/03/15 02:55:35;;;;;;;7.82;2.12;;;;;;;23.36;38.53;98707.75;4453711;32;33551;-66
2021/03/15 02:58:03;;;;;;;6.93;1.52;;;;;;;23.37;38.53;98709.44;4475192;32;34732;-67
2021/03/15 03:00:30;;;;;;;5.87;1.70;;;;;;;23.36;38.70;98708.62;4483101;32;34219;-68
2021/03/15 03:02:57;;;;;;;10.55;1.98;;;;;;;23.34;38.68;98713.47;4483200;32;33343;-67
2021/03/15 03:05:25;;;;;;;4.87;1.30;;;;;;;23.36;38.52;98714.06;4469026;32;33440;-66
2021/03/15 03:08:09;;;;;;;5.70;1.87;;;;;;;23.35;38.50;98711.56;4481926;32;34694;-67
2021/03/15 03:10:36;;;;;;;8.75;1.70;;;;;;;23.35;38.63;98711.56;4481882;32;35257;-68
2021/03/15 03:13:03;;;;;;;9.00;2.00;;;;;;;23.34;38.71;98710.75;4482025;32;33346;-60
2021/03/15 03:15:31;;;;;;;10.07;1.67;;;;;;;23.34;38.43;98709.94;4468802;32;33706;-67
2021/03/15 03:18:01;;;;;;;4.25;1.23;;;;;;;23.33;38.65;98708.28;4481781;32;34341;-63
2021/03/15 03:20:28;;;;;;;6.95;1.67;;;;;;;23.32;38.39;98709.38;4481619;32;34816;-67
2021/03/15 03:22:57;;;;;;;5.68;1.58;;;;;;;23.33;38.53;98711.00;4481720;32;34162;-67
2021/03/15 03:25:25;;;;;;;6.47;1.70;;;;;;;23.32;38.73;98717.53;4468668;32;33727;-68
2021/03/15 03:27:54;;;;;;;7.85;1.77;;;;;;;23.32;38.73;98718.34;4468626;32;33966;-68
2021/03/15 03:30:39;;;;;;;4.80;1.80;;;;;;;23.32;38.60;98715.63;4481513;32;33438;-67
2021/03/15 03:33:07;;;;;;;5.40;1.77;;;;;;;23.34;38.56;98718.91;4475572;32;34321;-54
2021/03/15 03:35:35;;;;;;;13.05;1.83;;;;;;;23.32;38.72;98712.09;4471457;32;32783;-57
2021/03/15 03:38:02;;;;;;;4.97;1.50;;;;;;;23.30;38.79;98720.50;4484937;32;33838;-59
2021/03/15 03:40:29;;;;;;;5.68;1.60;;;;;;;23.30;38.74;98712.31;4484902;32;34917;-58
2021/03/15 03:42:56;;;;;;;11.38;1.87;;;;;;;23.29;38.73;98704.41;4484915;32;34198;-51
2021/03/15 03:45:23;;;;;;;9.07;1.77;;;;;;;23.29;38.73;98709.84;4484896;32;34698;-58
2021/03/15 03:47:50;;;;;;;5.90;1.98;;;;;;;23.27;38.71;98710.12;4484785;32;33729;-47
2021/03/15 03:50:21;;;;;;;6.12;1.70;;;;;;;23.28;38.69;98702.78;4483532;32;33462;-55
2021/03/15 03:53:06;;;;;;;7.78;1.42;;;;;;;23.27;38.55;98706.56;4483719;32;34137;-55
2021/03/15 03:56:01;;;;;;;4.87;1.50;;;;;;;23.28;38.60;98706.31;4483691;32;33819;-55
2021/03/15 03:58:33;;;;;;;6.37;1.40;;;;;;;23.26;38.70;98704.91;4469207;32;33832;-51
2021/03/15 04:01:02;;;;;;;5.20;1.62;;;;;;;23.26;38.83;98699.47;4467770;32;33810;-54
2021/03/15 04:03:30;;;;;;;6.55;1.73;;;;;;;23.25;38.56;98697.81;4467608;32;33174;-60
2021/03/15 04:06:00;;;;;;;6.55;1.85;;;;;;;23.25;38.76;98703.28;4469311;32;33452;-66
2021/03/15 04:08:32;;;;;;;3.90;1.50;;;;;;;23.24;38.69;98696.19;4477155;32;33527;-64
2021/03/15 04:11:00;;;;;;;7.07;1.65;;;;;;;23.25;38.69;98703.28;4467789;32;33641;-48
2021/03/15 04:13:28;;;;;;;6.45;1.65;;;;;;;23.23;38.85;98691.81;4474527;32;33240;-57
2021/03/15 04:15:55;;;;;;;8.43;2.25;;;;;;;23.23;38.68;98697.28;4476997;32;33594;-48
2021/03/15 04:18:24;;;;;;;4.95;1.50;;;;;;;23.22;38.79;98690.97;4454910;32;33885;-52
2021/03/15 04:20:54;;;;;;;6.45;1.80;;;;;;;23.23;38.82;98691.81;4467967;32;33640;-53
2021/03/15 04:23:33;;;;;;;8.15;1.80;;;;;;;23.21;38.84;98694.78;4484432;32;33207;-45
2021/03/15 04:26:00;;;;;;;12.43;1.85;;;;;;;23.22;38.78;98684.72;4470541;32;34505;-62
2021/03/15 04:28:30;;;;;;;9.48;1.67;;;;;;;23.20;38.87;98695.88;4470309;32;34817;-57
2021/03/15 04:30:58;;;;;;;9.48;1.50;;;;;;;23.19;38.92;98698.84;4483269;32;33773;-49
2021/03/15 04:33:25;;;;;;;8.40;1.87;;;;;;;23.20;38.73;98689.59;4467357;32;33272;-53
2021/03/15 04:35:52;;;;;;;11.35;1.58;;;;;;;23.20;38.80;98703.19;4454684;32;33795;-59
2021/03/15 04:38:20;;;;;;;5.95;1.45;;;;;;;23.20;38.98;98697.75;4457315;32;34677;-64
2021/03/15 04:40:48;;;;;;;6.00;1.50;;;;;;;23.20;38.58;98695.03;4476826;32;33603;-68
2021/03/15 04:43:16;;;;;;;10.30;1.90;;;;;;;23.18;38.55;98692.59;4475264;32;33321;-50
2021/03/15 04:45:43;;;;;;;5.32;1.42;;;;;;;23.19;38.69;98701.56;4480350;32;33774;-59
2021/03/15 04:48:23;;;;;;;7.72;1.70;;;;;;;23.19;38.71;98699.66;4467020;32;33946;-54
2021/03/15 04:50:54;;;;;;;4.90;1.35;;;;;;;23.18;38.66;98698.03;4471288;32;33464;-62
2021/03/15 04:53:21;;;;;;;7.12;1.75;;;;;;;23.17;38.76;98708.09;4480084;32;33240;-52
2021/03/15 04:55:48;;;;;;;8.32;1.80;;;;;;;23.17;38.82;98710.81;4481467;32;33747;-54
2021/03/15 04:58:16;;;;;;;6.78;1.58;;;;;;;23.16;38.76;98706.41;4483622;32;33841;-65
2021/03/15 05:00:45;;;;;;;5.82;1.48;;;;;;;23.16;38.90;98716.47;4470059;32;34551;-55
2021/03/15 05:03:14;;;;;;;5.50;1.42;;;;;;;23.13;38.87;98709.66;4483154;32;32942;-58
2021/03/15 05:05:41;;;;;;;5.75;1.62;;;;;;;23.14;38.74;98711.31;4471800;32;34290;-52
2021/03/15 05:08:09;;;;;;;5.45;1.27;;;;;;;23.13;38.75;98701.50;4483106;32;34905;-58
2021/03/15 05:10:36;;;;;;;4.85;1.40;;;;;;;23.13;38.83;98709.66;4476770;32;33973;-56
2021/03/15 05:13:04;;;;;;;7.22;1.50;;;;;;;23.14;38.90;98702.31;4454465;32;34115;-62
2021/03/15 05:15:32;;;;;;;11.23;1.70;;;;;;;23.11;38.69;98700.91;4467288;32;34936;-53
2021/03/15 05:18:00;;;;;;;6.30;1.77;;;;;;;23.12;38.88;98705.28;4467549;32;33736;-60
2021/03/15 05:20:27;;;;;;;4.87;1.40;;;;;;;23.12;38.94;98707.16;4467248;32;33733;-57
2021/03/15 05:22:54;;;;;;;6.90;1.67;;;;;;;23.10;38.89;98696.53;4470883;32;34164;-67
2021/03/15 05:25:22;;;;;;;7.75;1.40;;;;;;;23.11;38.88;98703.63;4476608;32;33621;-68
2021/03/15 05:27:52;;;;;;;6.40;1.95;;;;;;;23.12;38.87;98704.44;4467404;32;34290;-67
2021/03/15 05:30:19;;;;;;;6.72;1.62;;;;;;;23.11;38.99;98705.53;4480821;32;33438;-54
2021/03/15 05:32:50;;;;;;;6.55;1.10;;;;;;;23.11;38.94;98698.19;4483873;32;33213;-63
2021/03/15 05:35:18;;;;;;;7.07;1.40;;;;;;;23.11;38.98;98700.91;4484242;32;34342;-65
2021/03/15 05:37:45;;;;;;;8.90;2.00;;;;;;;23.11;38.94;98708.25;4482967;32;35269;-53
2021/03/15 05:40:17;;;;;;;9.82;1.45;;;;;;;23.09;38.95;98713.13;4483839;32;34748;-64
2021/03/15 05:43:06;;;;;;;9.50;1.52;;;;;;;23.08;39.00;98717.75;4468973;32;33056;-67
2021/03/15 05:46:11;;;;;;;10.15;1.58;;;;;;;23.08;38.96;98725.06;4468305;32;33859;-65
2021/03/15 05:48:56;;;;;;;5.20;1.45;;;;;;;23.11;38.98;98724.56;4468255;32;33908;-59
2021/03/15 05:51:56;;;;;;;6.68;1.62;;;;;;;23.07;38.77;98723.44;4467126;32;33686;-55
2021/03/15 05:54:42;;;;;;;7.62;1.83;;;;;;;23.07;38.93;98723.44;4468469;32;33350;-55
2021/03/15 05:57:42;;;;;;;5.30;1.65;;;;;;;23.06;38.85;98719.06;4467307;32;33577;-60
2021/03/15 06:00:34;;;;;;;5.05;1.50;;;;;;;23.06;38.97;98732.66;4467408;32;34133;-56
2021/03/15 06:03:08;;;;;;;4.87;1.50;;;;;;;23.06;38.98;98732.66;4468295;32;33628;-56
2021/03/15 06:05:36;;;;;;;7.55;1.60;;;;;;;23.03;39.01;98733.97;4466987;32;32982;-55
2021/03/15 06:08:07;;;;;;;7.35;1.40;;;;;;;23.02;39.02;98743.22;4468224;32;34837;-67
2021/03/15 06:10:42;;;;;;;6.97;1.83;;;;;;;23.02;38.80;98750.56;4467092;32;34729;-57
2021/03/15 06:13:13;;;;;;;5.78;1.70;;;;;;;23.04;38.95;98749.25;4467074;32;34320;-62
2021/03/15 06:15:42;;;;;;;6.10;1.50;;;;;;;23.03;39.00;98752.19;4468234;32;34011;-62
2021/03/15 06:18:12;;;;;;;3.92;1.20;;;;;;;23.01;38.90;98749.75;4475936;32;34426;-68
2021/03/15 06:20:41;;;;;;;5.50;1.20;;;;;;;23.02;38.75;98745.94;4483664;32;33979;-67
2021/03/15 06:23:08;;;;;;;5.85;1.33;;;;;;;23.03;38.79;98752.19;4483789;32;33876;-66
2021/03/15 06:25:36;;;;;;;5.80;1.60;;;;;;;23.03;38.76;98754.91;4483621;32;33956;-65
2021/03/15 06:28:04;;;;;;;6.00;1.60;;;;;;;23.03;38.85;98757.63;4483587;32;33790;-68
2021/03/15 06:30:31;;;;;;;6.00;1.42;;;;;;;23.03;38.85;98757.63;4483701;32;33870;-67
2021/03/15 06:32:59;;;;;;;5.65;1.58;;;;;;;23.02;38.77;98754.09;4483492;32;33783;-65
2021/03/15 06:35:27;;;;;;;6.87;1.50;;;;;;;23.02;38.89;98754.09;4483955;32;34086;-66
2021/03/15 06:37:55;;;;;;;8.85;1.90;;;;;;;23.01;38.89;98752.47;4483678;32;33912;-68
2021/03/15 06:40:22;;;;;;;8.43;1.60;;;;;;;23.02;38.90;98754.09;4483359;32;33917;-66
2021/03/15 06:42:50;;;;;;;9.00;1.90;;;;;;;23.01;38.89;98743.47;4483297;32;34645;-64
2021/03/15 06:45:19;;;;;;;4.93;1.52;;;;;;;23.03;38.94;98755.75;4482230;32;33201;-66
2021/03/15 06:47:48;;;;;;;10.00;2.20;;;;;;;23.00;38.84;98750.00;4483296;32;33556;-68
2021/03/15 06:50:16;;;;;;;7.60;1.45;;;;;;;23.01;38.86;98755.19;4483514;32;33882;-68
2021/03/15 06:52:52;;;;;;;11.15;1.95;;;;;;;23.03;38.61;98754.91;4483610;32;33849;-67
2021/03/15 06:55:35;;;;;;;6.40;1.80;;;;;;;23.03;38.40;98755.75;4483313;32;34018;-65
2021/03/15 06:58:21;;;;;;;9.90;1.95;;;;;;;23.01;38.46;98754.34;4483208;32;33811;-67
2021/03/15 07:01:09;;;;;;;13.77;2.00;;;;;;;23.02;38.49;98756.00;4483265;32;34863;-68
2021/03/15 07:03:37;;;;;;;10.25;2.22;;;;;;;23.00;38.45;98758.16;4482158;32;33727;-65
2021/03/15 07:06:05;;;;;;;9.90;1.67;;;;;;;23.01;38.54;98754.34;4483224;32;33286;-65
2021/03/15 07:08:32;;;;;;;10.57;2.10;;;;;;;23.00;38.42;98758.97;4483294;32;33264;-65
2021/03/15 07:11:25;;;;;;;9.00;2.12;;;;;;;23.00;38.70;98752.72;4484894;32;33808;-67
2021/03/15 07:13:52;;;;;;;7.45;1.55;;;;;;;23.00;38.55;98748.09;4484977;32;33616;-63
2021/03/15 07:16:26;;;;;;;11.68;1.70;;;;;;;22.98;38.58;98747.50;4485080;32;33360;-63
2021/03/15 07:18:53;;;;;;;11.68;2.30;;;;;;;22.98;38.57;98742.06;4472464;32;33740;-66
2021/03/15 07:21:30;;;;;;;6.62;2.25;;;;;;;22.99;38.50;98745.59;4469291;32;34026;-64
2021/03/15 07:23:58;;;;;;;6.18;1.58;;;;;;;23.01;38.43;98751.63;4471385;32;33764;-57
2021/03/15 07:26:30;;;;;;;8.50;1.35;;;;;;;22.99;38.60;98742.87;4481532;32;34855;-61
2021/03/15 07:28:58;;;;;;;13.02;2.03;;;;;;;22.98;38.60;98739.34;4484521;32;33438;-59
2021/03/15 07:31:32;;;;;;;5.30;1.90;;;;;;;22.99;38.57;98741.00;4484965;32;33812;-52
2021/03/15 07:33:59;;;;;;;5.62;1.60;;;;;;;22.99;38.48;98732.84;4484724;32;33498;-61
2021/03/15 07:36:27;;;;;;;8.55;2.08;;;;;;;22.99;38.47;98742.87;4485009;32;33969;-50
2021/03/15 07:38:54;;;;;;;8.13;1.45;;;;;;;22.97;38.59;98732.25;4484836;32;33817;-57
2021/03/15 07:41:42;;;;;;;6.12;1.50;;;;;;;22.98;38.49;98743.97;4481525;32;33560;-58
2021/03/15 07:44:19;;;;;;;5.95;1.40;;;;;;;22.99;38.39;98740.16;4474228;32;33658;-57
2021/03/15 07:46:47;;;;;;;5.62;1.80;;;;;;;22.99;38.45;98746.47;4478919;32;33281;-62
2021/03/15 07:49:24;;;;;;;6.47;2.00;;;;;;;22.99;38.43;98751.03;4477585;32;33732;-53
2021/03/15 07:51:52;;;;;;;5.70;1.80;;;;;;;22.99;38.57;98751.03;4481868;32;33953;-56
2021/03/15 07:54:29;;;;;;;10.55;1.33;;;;;;;22.98;38.47;98750.22;4484845;32;33705;-46
2021/03/15 07:57:19;;;;;;;3.83;1.30;;;;;;;22.97;38.49;98745.03;4484717;32;34077;-55
2021/03/15 07:59:57;;;;;;;7.87;1.20;;;;;;;22.99;38.52;98746.47;4484758;32;34820;-56
2021/03/15 08:02:29;;;;;;;6.20;1.40;;;;;;;22.97;38.43;98743.16;4484635;32;34706;-51
2021/03/15 08:04:58;;;;;;;8.00;1.50;;;;;;;22.96;38.54;98746.94;4484808;32;34473;-53
2021/03/15 08:07:28;;;;;;;5.28;1.60;;;;;;;22.96;38.55;98744.22;4484670;32;33369;-62
2021/03/15 08:09:57;;;;;;;6.68;1.40;;;;;;;22.96;38.51;98741.50;4484718;32;34474;-59
2021/03/15 08:12:30;;;;;;;5.53;1.48;;;;;;;22.96;38.56;98737.97;4484619;32;34711;-60
2021/03/15 08:15:06;;;;;;;7.72;1.73;;;;;;;22.97;38.63;98739.59;4484463;32;34141;-51
2021/03/15 08:17:36;;;;;;;9.38;1.55;;;;;;;22.97;38.46;98734.97;4484843;32;33244;-50
2021/03/15 08:20:04;;;;;;;6.97;1.45;;;;;;;22.96;38.72;98732.53;4484675;32;33845;-47
2021/03/15 08:22:33;;;;;;;5.15;1.58;;;;;;;22.96;38.72;98735.25;4484167;32;33889;-62
2021/03/15 08:25:00;;;;;;;11.52;1.60;;;;;;;22.97;38.57;98742.31;4484734;32;33064;-52
2021/03/15 08:27:29;;;;;;;8.98;1.30;;;;;;;22.97;38.49;98737.69;4484629;32;33390;-61
2021/03/15 08:29:58;;;;;;;8.38;2.00;;;;;;;22.96;38.48;98735.25;4484613;32;35018;-55
2021/03/15 08:32:26;;;;;;;8.02;1.85;;;;;;;22.96;38.55;98737.97;4483152;32;33834;-56
2021/03/15 08:34:53;;;;;;;10.23;2.53;;;;;;;22.96;38.46;98743.41;4483168;32;33651;-55
2021/03/15 08:37:53;;;;;;;9.75;3.65;;;;;;;22.95;38.48;98742.59;4469813;32;33378;-60
2021/03/15 08:40:53;;;;;;;12.90;5.12;;;;;;;23.00;35.41;98736.41;4468961;32;34436;-60
2021/03/15 08:43:21;;;;;;;27.02;4.57;;;;;;;22.90;32.64;98732.44;4448309;32;34595;-56
2021/03/15 08:46:10;;;;;;;12.15;4.35;;;;;;;22.82;34.35;98724.66;4480612;32;33525;-57
2021/03/15 08:48:41;;;;;;;9.53;3.80;;;;;;;22.80;34.94;98728.69;4484052;32;33280;-59
2021/03/15 08:51:08;;;;;;;10.70;4.28;;;;;;;22.80;35.27;98724.09;4484165;32;33789;-59
2021/03/15 08:53:44;;;;;;;12.60;3.03;;;;;;;22.84;35.35;98724.41;4484381;32;34773;-48
2021/03/15 08:56:19;;;;;;;13.50;2.95;;;;;;;22.98;35.47;98719.47;4483814;32;33367;-61
2021/03/15 08:58:46;;;;;;;10.00;2.92;;;;;;;23.15;35.52;98712.13;4483400;32;33084;-58
2021/03/15 09:01:17;;;;;;;8.38;2.45;;;;;;;23.31;35.48;98711.25;4483187;32;34733;-54
2021/03/15 09:04:03;;;;;;;10.10;2.60;;;;;;;23.49;35.49;98701.94;4482951;32;33854;-60
2021/03/15 09:06:35;;;;;;;15.68;2.60;;;;;;;23.69;35.43;98698.69;4484019;32;33597;-61
2021/03/15 09:09:06;;;;;;;13.55;2.85;;;;;;;23.81;35.36;98693.09;4484598;32;34215;-56
2021/03/15 09:11:42;;;;;;;13.35;3.15;;;;;;;23.95;35.32;98690.78;4484074;32;34419;-47
2021/03/15 09:17:21;;;;;;;11.80;3.28;;;;;;;24.17;35.25;98695.13;4483986;32;33685;-61
2021/03/15 09:19:49;;;;;;;8.70;2.20;;;;;;;24.29;35.20;98683.22;4476029;31;32999;-66
2021/03/15 09:22:26;;;;;;;13.02;2.58;;;;;;;24.34;35.21;98675.06;4483842;32;34644;-62
2021/03/15 09:24:56;;;;;;;9.75;2.20;;;;;;;24.40;35.19;98677.63;4484224;32;34004;-59
2021/03/15 09:27:42;;;;;;;8.75;2.03;;;;;;;24.43;35.21;98671.66;4484317;32;34337;-60
2021/03/15 09:30:14;;;;;;;5.20;2.00;;;;;;;24.48;35.22;98662.72;4484114;32;33461;-66
2021/03/15 09:33:07;;;;;;;13.20;2.37;;;;;;;24.49;35.25;98656.16;4483796;32;33874;-58
2021/03/15 09:35:37;;;;;;;6.97;2.17;;;;;;;24.55;35.29;98651.56;4477419;32;33490;-54
2021/03/15 09:38:08;;;;;;;12.00;2.75;;;;;;;24.53;35.32;98645.53;4468308;32;33839;-59
2021/03/15 09:40:46;;;;;;;11.23;2.65;;;;;;;24.51;35.00;98634.09;4468720;32;33052;-59
2021/03/15 09:43:29;;;;;;;15.30;2.40;;;;;;;24.52;35.19;98625.62;4468144;32;33877;-63
2021/03/15 09:45:58;;;;;;;12.05;2.62;;;;;;;24.50;35.23;98627.81;4468639;32;33603;-53
2021/03/15 09:48:27;;;;;;;12.57;2.90;;;;;;;24.47;35.30;98609.22;4465355;32;33711;-58
2021/03/15 09:50:57;;;;;;;7.87;2.08;;;;;;;24.47;35.24;98611.97;4477377;32;34110;-51
2021/03/15 09:53:25;;;;;;;7.87;2.20;;;;;;;24.45;35.17;98608.69;4483951;32;34378;-47
2021/03/15 09:56:02;;;;;;;9.02;2.37;;;;;;;24.42;35.19;98606.47;4484056;32;33784;-52
2021/03/15 09:58:31;;;;;;;8.55;2.62;;;;;;;24.40;35.26;98620.38;4483565;32;33522;-51
2021/03/15 10:00:59;;;;;;;8.25;2.08;;;;;;;24.37;35.29;98598.25;4484184;32;34034;-58
2021/03/15 10:03:30;;;;;;;10.68;2.50;;;;;;;24.35;35.45;98603.97;4483910;32;34345;-57
2021/03/15 10:06:02;;;;;;;10.07;2.40;;;;;;;24.33;35.60;98591.66;4483784;32;32219;-63
2021/03/15 10:08:53;;;;;;;12.45;2.60;;;;;;;24.34;35.71;98601.47;4482445;32;33156;-52
2021/03/15 10:11:33;;;;;;;7.25;2.08;;;;;;;24.32;35.85;98590.84;4482100;32;33268;-59
2021/03/15 10:14:04;;;;;;;7.07;1.75;;;;;;;24.28;35.88;98591.63;4470334;32;33443;-53
2021/03/15 10:16:51;;;;;;;13.73;3.00;;;;;;;24.24;36.03;98587.78;4483463;32;33595;-63
2021/03/15 10:19:22;;;;;;;7.10;2.30;;;;;;;24.22;36.09;98598.94;4483308;32;33681;-55
2021/03/15 10:21:49;;;;;;;7.95;1.90;;;;;;;24.20;36.18;98603.81;4483874;32;33321;-62
2021/03/15 10:24:33;;;;;;;8.63;2.08;;;;;;;24.17;36.28;98594.28;4483540;32;34092;-48
2021/03/15 10:27:02;;;;;;;9.25;2.33;;;;;;;24.16;36.33;98600.81;4483892;32;34739;-49
2021/03/15 10:29:32;;;;;;;6.20;2.17;;;;;;;24.15;36.34;98598.31;4483623;32;33595;-67
2021/03/15 10:32:03;;;;;;;7.78;2.15;;;;;;;24.12;36.41;98571.62;4481880;32;33246;-60
2021/03/15 10:34:31;;;;;;;13.38;2.33;;;;;;;24.13;36.45;98575.97;4483708;32;34413;-65
2021/03/15 10:36:59;;;;;;;5.85;1.98;;;;;;;24.10;36.52;98590.13;4472043;32;34323;-49
2021/03/15 10:39:27;;;;;;;9.60;2.25;;;;;;;24.09;36.60;98578.41;4453798;32;33716;-65
2021/03/15 10:41:56;;;;;;;9.05;2.30;;;;;;;24.07;36.67;98572.41;4466357;32;33304;-54
2021/03/15 10:44:24;;;;;;;6.85;2.20;;;;;;;24.04;36.72;98563.91;4463117;32;33840;-65
2021/03/15 10:46:54;;;;;;;8.63;1.92;;;;;;;24.01;36.76;98567.16;4482446;32;33794;-69
2021/03/15 10:49:24;;;;;;;6.32;2.03;;;;;;;24.00;36.78;98570.97;4483647;32;33627;-59
2021/03/15 10:51:53;;;;;;;10.25;2.78;;;;;;;23.98;36.81;98568.50;4483118;32;33241;-59
2021/03/15 10:54:31;;;;;;;8.73;2.58;;;;;;;23.96;36.83;98567.09;4483397;32;34696;-58
2021/03/15 10:57:12;;;;;;;7.43;2.20;;;;;;;23.94;36.90;98570.09;4483333;32;33204;-54
2021/03/15 10:59:39;;;;;;;9.05;2.55;;;;;;;23.93;36.92;98571.19;4483360;32;34394;-56
2021/03/15 11:02:08;;;;;;;8.38;2.05;;;;;;;23.91;36.95;98563.25;4483151;32;32791;-52
2021/03/15 11:04:38;;;;;;;5.65;2.10;;;;;;;23.89;36.99;98559.97;4482975;32;34131;-65
2021/03/15 11:07:25;;;;;;;7.12;2.00;;;;;;;23.87;37.05;98561.31;4482973;32;33994;-55
2021/03/15 11:09:53;;;;;;;6.05;2.05;;;;;;;23.88;36.98;98549.34;4483221;32;33517;-66
2021/03/15 11:12:39;;;;;;;7.93;2.33;;;;;;;23.83;37.05;98541.97;4482839;32;33214;-51
2021/03/15 11:15:14;;;;;;;6.82;2.15;;;;;;;23.84;37.11;98559.13;4482759;32;33929;-65
2021/03/15 11:17:42;;;;;;;7.85;2.00;;;;;;;23.82;37.12;98553.09;4482390;31;33926;-58
2021/03/15 11:20:11;;;;;;;5.85;1.87;;;;;;;23.80;37.14;98547.91;4480988;32;33567;-63
2021/03/15 11:22:46;;;;;;;5.15;2.35;;;;;;;23.80;37.17;98549.81;4482952;32;32798;-68
2021/03/15 11:25:13;;;;;;;7.30;2.05;;;;;;;23.81;37.15;98543.28;4482468;32;33789;-55
2021/03/15 11:27:45;;;;;;;6.57;1.90;;;;;;;23.79;37.13;98534.56;4482724;32;34689;-68
2021/03/15 11:30:20;;;;;;;9.88;2.12;;;;;;;23.78;37.18;98532.91;4482405;32;33658;-57
2021/03/15 11:32:48;;;;;;;6.93;2.00;;;;;;;23.77;37.19;98529.34;4479854;32;33979;-66
2021/03/15 11:35:22;;;;;;;7.87;1.95;;;;;;;23.76;37.20;98533.16;4478848;32;33489;-51
2021/03/15 11:37:51;;;;;;;8.38;1.98;;;;;;;23.75;37.18;98526.09;4466873;32;33566;-57
2021/03/15 11:40:28;;;;;;;7.78;2.17;;;;;;;23.73;37.20;98541.84;4466812;32;33688;-55
2021/03/15 11:42:56;;;;;;;5.93;1.83;;;;;;;23.75;37.19;98528.00;4467581;32;33886;-52
2021/03/15 11:45:23;;;;;;;7.37;1.60;;;;;;;23.72;37.24;98520.31;4482255;32;33521;-52
2021/03/15 11:47:51;;;;;;;7.65;1.73;;;;;;;23.72;37.25;98514.87;4482736;32;35431;-57
2021/03/15 11:50:30;;;;;;;7.00;1.95;;;;;;;23.70;37.29;98533.41;4467093;32;34883;-49
2021/03/15 11:52:57;;;;;;;6.30;2.17;;;;;;;23.70;37.28;98517.88;4466579;32;34104;-60
2021/03/15 11:55:25;;;;;;;5.62;1.87;;;;;;;23.70;37.27;98515.16;4466650;32;33728;-53